La plateforme de Tours Sorigny

[wp_mapbox_gl_js map_id= »822″]


Adresse :

Aérodrome de Tours-Sorigny

RD 910

37250 SORIGNY


Carte VAC :

https://www.sia.aviation-civile.gouv.fr/dvd/eAIP_19_JUL_2018/Atlas-VAC/PDF_AIPparSSection/VAC/AD/AD-2.LFEN.pdf

METAR / TAF:

LFOT 270200Z AUTO 06010KT 030V090 9000 NSC 23/20 Q1019 NOSIG

TAF LFOT 261700Z 2618/2718 08007KT CAVOK